Time;durP1;ratioP1;P1;durP2;ratioP2;P2;SDS_P1;SDS_P2;PMS_P1;PMS_P2;Temp;Humidity;BMP_temperature;BMP_pressure;BME280_temperature;BME280_humidity;BME280_pressure;Samples;Min_cycle;Max_cycle;Signal;HPM_P1;HPM_P2
2023/03/22 00:01:10;;;;;;;10.57;8.07;;;9.30;99.90;;;;;;5050973;28;20214;-55
2023/03/22 00:03:37;;;;;;;13.00;9.10;;;9.30;99.90;;;;;;5062081;28;20203;-50
2023/03/22 00:06:04;;;;;;;11.17;9.03;;;9.30;99.90;;;;;;5057223;28;20222;-47
2023/03/22 00:08:32;;;;;;;12.13;8.80;;;9.30;99.90;;;;;;5090666;28;20222;-46
2023/03/22 00:10:59;;;;;;;11.23;8.07;;;9.30;99.90;;;;;;5059873;28;20252;-49
2023/03/22 00:13:25;;;;;;;11.43;9.50;;;9.30;99.90;;;;;;5060352;28;20253;-59
2023/03/22 00:16:12;;;;;;;12.90;8.67;;;9.30;99.90;;;;;;5050246;28;20253;-58
2023/03/22 00:18:39;;;;;;;13.20;9.73;;;9.40;99.90;;;;;;5062674;28;20195;-48
2023/03/22 00:21:10;;;;;;;13.47;9.07;;;9.40;99.90;;;;;;5059779;28;20611;-52
2023/03/22 00:23:37;;;;;;;15.93;8.90;;;9.40;99.90;;;;;;5061024;28;20186;-47
2023/03/22 00:26:25;;;;;;;12.13;8.67;;;9.30;99.90;;;;;;5054275;28;20754;-60
2023/03/22 00:28:53;;;;;;;11.27;9.50;;;9.40;99.90;;;;;;5065084;28;20219;-47
2023/03/22 00:31:21;;;;;;;13.77;9.53;;;9.40;99.90;;;;;;5047914;28;20214;-58
2023/03/22 00:33:47;;;;;;;11.93;9.37;;;9.40;99.90;;;;;;5062803;28;20202;-48
2023/03/22 00:36:14;;;;;;;12.73;9.30;;;9.40;99.90;;;;;;5060293;28;20272;-59
2023/03/22 00:38:41;;;;;;;12.57;9.97;;;9.40;99.90;;;;;;5061960;28;20183;-47
2023/03/22 00:41:10;;;;;;;12.43;9.80;;;9.40;99.90;;;;;;5063796;28;20285;-56
2023/03/22 00:43:37;;;;;;;13.80;10.13;;;9.40;99.90;;;;;;5055800;28;20209;-49
2023/03/22 00:46:05;;;;;;;11.83;9.80;;;9.40;99.90;;;;;;5050210;28;20218;-51
2023/03/22 00:48:33;;;;;;;10.93;9.83;;;9.40;99.90;;;;;;5061069;28;20401;-47
2023/03/22 00:51:00;;;;;;;13.27;10.17;;;9.30;99.90;;;;;;5064713;28;20209;-50
2023/03/22 00:53:31;;;;;;;12.50;10.33;;;9.30;99.90;;;;;;5088364;28;20207;-48
2023/03/22 00:55:59;;;;;;;13.13;10.87;;;9.40;99.90;;;;;;5064085;28;20219;-52
2023/03/22 00:58:28;;;;;;;14.50;10.47;;;9.40;99.90;;;;;;5087694;28;20935;-49
2023/03/22 01:00:55;;;;;;;14.70;10.47;;;9.30;99.90;;;;;;5064617;28;20563;-48
2023/03/22 01:03:23;;;;;;;12.10;10.10;;;9.30;99.90;;;;;;5046991;28;20203;-57
2023/03/22 01:06:10;;;;;;;16.00;10.30;;;9.40;99.90;;;;;;5060906;28;20233;-53
2023/03/22 01:08:37;;;;;;;13.73;11.03;;;9.40;99.90;;;;;;5055445;28;20219;-50
2023/03/22 01:11:06;;;;;;;15.63;10.03;;;9.40;99.90;;;;;;5062982;28;20202;-48
2023/03/22 01:13:33;;;;;;;13.73;9.70;;;9.40;99.90;;;;;;5054198;28;20222;-54
2023/03/22 01:16:00;;;;;;;15.50;10.73;;;9.40;99.90;;;;;;5062472;28;20272;-51
2023/03/22 01:18:26;;;;;;;16.73;10.47;;;9.40;99.90;;;;;;5067159;28;20195;-50
2023/03/22 01:20:53;;;;;;;17.63;11.77;;;9.40;99.90;;;;;;5061488;28;20220;-52
2023/03/22 01:23:21;;;;;;;15.73;11.70;;;9.40;99.90;;;;;;5057238;28;20241;-55
2023/03/22 01:25:48;;;;;;;16.80;11.77;;;9.40;99.90;;;;;;5061480;28;20209;-49
2023/03/22 01:28:14;;;;;;;14.63;12.27;;;9.50;99.90;;;;;;5090476;28;20207;-57
2023/03/22 01:30:41;;;;;;;16.43;11.60;;;9.50;99.90;;;;;;5061612;28;20261;-47
2023/03/22 01:33:27;;;;;;;14.50;11.77;;;9.50;99.90;;;;;;5046589;28;20217;-51
2023/03/22 01:35:55;;;;;;;15.73;12.33;;;9.50;99.90;;;;;;5061916;28;20309;-48
2023/03/22 01:38:23;;;;;;;16.20;11.33;;;9.50;99.90;;;;;;5055994;28;20617;-60
2023/03/22 01:40:56;;;;;;;20.67;12.70;;;9.50;99.90;;;;;;5056411;28;20209;-49
2023/03/22 01:43:23;;;;;;;15.57;11.50;;;9.50;99.90;;;;;;5064994;28;20206;-59
2023/03/22 01:45:51;;;;;;;17.00;12.07;;;9.50;99.90;;;;;;5061799;28;20211;-50
2023/03/22 01:48:24;;;;;;;16.47;11.80;;;9.60;99.90;;;;;;5075353;28;20573;-60
2023/03/22 01:51:02;;;;;;;17.20;12.40;;;9.50;99.90;;;;;;5062491;28;20665;-53
2023/03/22 01:53:34;;;;;;;15.43;12.07;;;9.60;99.90;;;;;;5055640;28;20186;-49
2023/03/22 01:56:05;;;;;;;15.77;12.77;;;9.60;99.90;;;;;;5056785;28;20222;-52
2023/03/22 01:58:35;;;;;;;16.80;12.90;;;9.60;99.90;;;;;;5057694;28;20193;-52
2023/03/22 02:01:06;;;;;;;16.33;11.53;;;9.60;99.90;;;;;;5056546;28;20215;-47
2023/03/22 02:03:48;;;;;;;15.40;12.00;;;9.60;99.90;;;;;;5075742;28;20230;-49
2023/03/22 02:06:15;;;;;;;17.50;12.80;;;9.70;99.90;;;;;;5059839;28;20283;-58
2023/03/22 02:08:44;;;;;;;17.27;13.10;;;9.70;99.90;;;;;;5094073;28;20272;-54
2023/03/22 02:11:18;;;;;;;15.27;12.37;;;9.60;99.90;;;;;;5046026;28;20209;-58
2023/03/22 02:14:07;;;;;;;15.27;11.83;;;9.70;99.90;;;;;;5058102;28;20210;-52
2023/03/22 02:17:23;;;;;;;13.47;11.03;;;9.70;99.90;;;;;;5050034;28;20582;-61
2023/03/22 02:20:37;;;;;;;17.07;12.33;;;9.70;99.90;;;;;;5060587;28;20227;-48
2023/03/22 02:23:32;;;;;;;13.43;11.47;;;9.70;99.90;;;;;;5063316;28;20206;-47
2023/03/22 02:26:45;;;;;;;15.50;12.17;;;9.70;99.90;;;;;;5051616;28;20218;-46
2023/03/22 02:29:21;;;;;;;16.57;13.03;;;9.70;99.90;;;;;;5040260;28;20243;-59
2023/03/22 02:32:24;;;;;;;17.90;12.57;;;9.70;99.90;;;;;;5050714;28;20210;-48
2023/03/22 02:35:14;;;;;;;14.67;11.50;;;9.80;99.90;;;;;;5070263;28;20310;-47
2023/03/22 02:38:06;;;;;;;14.53;11.60;;;9.80;99.90;;;;;;5055696;28;20218;-53
2023/03/22 02:40:44;;;;;;;16.27;12.30;;;9.70;99.90;;;;;;5089687;28;20191;-49
2023/03/22 02:43:18;;;;;;;16.93;12.30;;;9.80;99.90;;;;;;5057872;28;20293;-57
2023/03/22 02:45:48;;;;;;;13.40;12.00;;;9.80;99.90;;;;;;5056353;28;20204;-47
2023/03/22 02:48:22;;;;;;;16.83;12.30;;;9.70;99.90;;;;;;5090813;28;20361;-59
2023/03/22 02:50:53;;;;;;;16.23;12.20;;;9.80;99.90;;;;;;5054072;28;20218;-48
2023/03/22 02:53:23;;;;;;;14.53;12.37;;;9.80;99.90;;;;;;5058861;28;20203;-60
2023/03/22 02:55:58;;;;;;;14.37;11.57;;;9.80;99.90;;;;;;5068169;28;20202;-54
2023/03/22 02:58:27;;;;;;;16.53;11.33;;;9.80;99.90;;;;;;5053838;28;20206;-59
2023/03/22 03:00:58;;;;;;;14.03;11.33;;;9.80;99.90;;;;;;5060852;28;20201;-53
2023/03/22 03:03:28;;;;;;;14.57;12.00;;;9.90;99.90;;;;;;5053865;28;20651;-58
2023/03/22 03:05:59;;;;;;;17.17;12.07;;;9.90;99.90;;;;;;5050611;28;20305;-46
2023/03/22 03:08:28;;;;;;;13.33;11.93;;;9.90;99.90;;;;;;5058924;28;20920;-47
2023/03/22 03:10:57;;;;;;;14.30;11.93;;;10.00;99.90;;;;;;5060372;28;20232;-46
2023/03/22 03:13:25;;;;;;;14.63;11.37;;;10.00;99.90;;;;;;5056200;28;20444;-56
2023/03/22 03:15:56;;;;;;;13.00;11.57;;;10.00;99.90;;;;;;5054769;28;20264;-49
2023/03/22 03:18:35;;;;;;;14.90;10.67;;;10.10;99.90;;;;;;5077314;28;20218;-59
2023/03/22 03:21:13;;;;;;;15.90;11.73;;;10.00;99.90;;;;;;5044454;28;20204;-54
2023/03/22 03:23:49;;;;;;;20.07;11.33;;;10.10;99.90;;;;;;5058229;28;20294;-49
2023/03/22 03:26:46;;;;;;;13.20;10.10;;;10.10;99.90;;;;;;5058556;28;20323;-47
2023/03/22 03:29:21;;;;;;;13.17;10.40;;;10.10;99.90;;;;;;5057602;28;20633;-60
2023/03/22 03:31:54;;;;;;;15.10;10.93;;;10.10;99.90;;;;;;5063061;28;20250;-47
2023/03/22 03:34:26;;;;;;;14.07;10.27;;;10.10;99.90;;;;;;5055702;28;20206;-60
2023/03/22 03:36:59;;;;;;;13.73;9.97;;;10.10;99.90;;;;;;5050063;28;20276;-46
2023/03/22 03:39:30;;;;;;;14.03;10.03;;;10.10;99.90;;;;;;5061661;28;20199;-59
2023/03/22 03:42:25;;;;;;;10.93;9.73;;;10.10;99.90;;;;;;5059235;28;20307;-58
2023/03/22 03:44:51;;;;;;;14.27;10.03;;;10.00;99.90;;;;;;5089916;28;20217;-49
2023/03/22 03:47:19;;;;;;;12.00;10.00;;;10.00;99.90;;;;;;5064234;28;20229;-57
2023/03/22 03:49:46;;;;;;;12.87;10.50;;;10.00;99.90;;;;;;5059365;28;20218;-47
2023/03/22 03:52:13;;;;;;;11.67;9.97;;;10.00;99.90;;;;;;5049433;28;20217;-58
2023/03/22 03:54:41;;;;;;;16.93;9.70;;;10.00;99.90;;;;;;5061541;28;20197;-48
2023/03/22 03:57:15;;;;;;;14.17;9.67;;;10.00;99.90;;;;;;5088166;28;20211;-58
2023/03/22 03:59:43;;;;;;;13.43;10.17;;;10.00;99.90;;;;;;5050805;28;20309;-53
2023/03/22 04:02:22;;;;;;;14.87;10.97;;;10.00;99.90;;;;;;5051120;28;20238;-60
2023/03/22 04:04:52;;;;;;;11.97;9.47;;;10.00;99.90;;;;;;5060038;28;20206;-55
2023/03/22 04:07:20;;;;;;;14.57;10.83;;;9.90;99.90;;;;;;5046756;28;20223;-61
2023/03/22 04:09:47;;;;;;;12.80;9.90;;;9.90;99.90;;;;;;5062643;28;20715;-49
2023/03/22 04:12:19;;;;;;;15.53;10.60;;;9.90;99.90;;;;;;5061774;28;20271;-59
2023/03/22 04:15:09;;;;;;;14.07;10.53;;;9.90;99.90;;;;;;5058698;28;20206;-53
2023/03/22 04:17:36;;;;;;;15.00;10.77;;;9.90;99.90;;;;;;5055769;28;20210;-54
2023/03/22 04:20:11;;;;;;;14.93;10.67;;;9.90;99.90;;;;;;5062615;28;20195;-57
2023/03/22 04:22:40;;;;;;;18.20;11.17;;;9.90;99.90;;;;;;5041313;28;20191;-55
2023/03/22 04:25:10;;;;;;;16.77;11.17;;;9.90;99.90;;;;;;5062961;28;20201;-59
2023/03/22 04:27:42;;;;;;;16.10;11.27;;;9.90;99.90;;;;;;5062749;28;20982;-56
2023/03/22 04:30:17;;;;;;;16.57;11.30;;;9.80;99.90;;;;;;5063309;28;20720;-63
2023/03/22 04:33:14;;;;;;;16.17;9.50;;;9.80;99.90;;;;;;5061326;28;20641;-59
2023/03/22 04:36:09;;;;;;;15.27;9.70;;;9.80;99.90;;;;;;5075174;28;20879;-48
2023/03/22 04:38:57;;;;;;;19.00;10.77;;;9.80;99.90;;;;;;5048168;28;20233;-49
2023/03/22 04:41:24;;;;;;;18.07;10.53;;;9.80;99.90;;;;;;5060830;28;20210;-58
2023/03/22 04:43:56;;;;;;;14.80;10.07;;;9.80;99.90;;;;;;5094053;28;20207;-50
2023/03/22 04:46:25;;;;;;;12.90;9.53;;;9.80;99.90;;;;;;5055569;28;20226;-58
2023/03/22 04:49:00;;;;;;;11.73;9.17;;;9.80;99.90;;;;;;5063019;28;20195;-48
2023/03/22 04:51:29;;;;;;;16.27;9.10;;;9.80;99.90;;;;;;5054164;28;20223;-56
2023/03/22 04:54:11;;;;;;;16.40;11.07;;;9.80;99.90;;;;;;5044768;28;20195;-60
2023/03/22 04:56:41;;;;;;;15.30;9.67;;;9.80;99.90;;;;;;5077191;28;20466;-47
2023/03/22 04:59:09;;;;;;;13.80;9.60;;;9.80;99.90;;;;;;5096913;28;20206;-58
2023/03/22 05:01:39;;;;;;;11.80;9.97;;;9.80;99.90;;;;;;5050490;28;20288;-49
2023/03/22 05:04:17;;;;;;;13.20;9.37;;;9.80;99.90;;;;;;5086464;28;20191;-61
2023/03/22 05:06:45;;;;;;;12.60;9.20;;;9.80;99.90;;;;;;5080829;28;20562;-62
2023/03/22 05:09:20;;;;;;;12.23;9.23;;;9.80;99.90;;;;;;5049177;28;20202;-50
2023/03/22 05:11:48;;;;;;;15.03;9.93;;;9.70;99.90;;;;;;5050046;28;20696;-55
2023/03/22 05:14:26;;;;;;;13.07;10.33;;;9.70;99.90;;;;;;5051724;28;20198;-50
2023/03/22 05:16:56;;;;;;;15.53;10.03;;;9.70;99.90;;;;;;5063108;28;20230;-67
2023/03/22 05:19:23;;;;;;;15.87;9.43;;;9.70;99.90;;;;;;5091923;28;20286;-69
2023/03/22 05:21:56;;;;;;;10.23;8.43;;;9.80;99.90;;;;;;5062945;28;20559;-68
2023/03/22 05:24:23;;;;;;;13.50;9.27;;;9.80;99.90;;;;;;5039850;28;20214;-67
2023/03/22 05:26:52;;;;;;;14.57;9.60;;;9.80;99.90;;;;;;5051854;28;20230;-66
2023/03/22 05:29:23;;;;;;;15.43;10.03;;;9.80;99.90;;;;;;5056044;28;20206;-54
2023/03/22 05:32:06;;;;;;;10.77;8.83;;;9.80;99.90;;;;;;5047870;28;20210;-60
2023/03/22 05:34:35;;;;;;;10.87;8.80;;;9.90;99.90;;;;;;5051344;28;20255;-63
2023/03/22 05:37:09;;;;;;;14.30;9.63;;;9.90;99.90;;;;;;5055443;28;20306;-51
2023/03/22 05:39:46;;;;;;;10.33;8.50;;;9.90;99.90;;;;;;5039449;28;21979;-52
2023/03/22 05:42:13;;;;;;;13.97;9.67;;;9.90;99.90;;;;;;5063076;28;20222;-52
2023/03/22 05:44:41;;;;;;;14.33;9.30;;;9.90;99.90;;;;;;5046463;28;20194;-54
2023/03/22 05:47:13;;;;;;;13.00;9.80;;;9.90;99.90;;;;;;5087814;28;20936;-49
2023/03/22 05:50:02;;;;;;;12.10;8.60;;;9.90;99.90;;;;;;5060631;28;20218;-52
2023/03/22 05:52:31;;;;;;;14.90;9.47;;;9.90;99.90;;;;;;5050800;28;20207;-61
2023/03/22 05:55:18;;;;;;;10.33;8.53;;;9.90;99.90;;;;;;5053533;28;20608;-63
2023/03/22 05:57:50;;;;;;;10.20;8.10;;;9.90;99.90;;;;;;5043039;28;20210;-53
2023/03/22 06:00:18;;;;;;;12.03;8.20;;;9.90;99.90;;;;;;5055511;28;20197;-61
2023/03/22 06:03:06;;;;;;;15.17;9.73;;;9.90;99.90;;;;;;5056972;28;20203;-55
2023/03/22 06:05:39;;;;;;;8.30;7.50;;;10.00;99.90;;;;;;5054704;28;20194;-56
2023/03/22 06:08:08;;;;;;;15.90;9.50;;;10.00;99.90;;;;;;5054903;28;20211;-60
2023/03/22 06:10:35;;;;;;;10.50;8.63;;;10.00;99.90;;;;;;5041250;28;20503;-61
2023/03/22 06:13:02;;;;;;;11.73;8.20;;;10.00;99.90;;;;;;5058933;28;20614;-60
2023/03/22 06:15:32;;;;;;;8.57;7.63;;;10.10;99.90;;;;;;5048036;28;20202;-63
2023/03/22 06:18:07;;;;;;;10.50;7.77;;;10.10;99.90;;;;;;5057058;28;20195;-53
2023/03/22 06:20:39;;;;;;;9.70;8.13;;;10.10;99.90;;;;;;5049098;28;20182;-53
2023/03/22 06:23:12;;;;;;;13.87;10.10;;;10.10;99.90;;;;;;5056098;28;20268;-56
2023/03/22 06:25:40;;;;;;;15.10;9.73;;;10.10;99.90;;;;;;5043960;28;20201;-55
2023/03/22 06:28:07;;;;;;;11.33;7.40;;;10.10;99.90;;;;;;5080538;28;20238;-53
2023/03/22 06:30:34;;;;;;;15.53;9.87;;;10.20;99.90;;;;;;5051225;28;20242;-56
2023/03/22 06:33:27;;;;;;;8.80;6.80;;;10.20;99.90;;;;;;5051183;28;20206;-56
2023/03/22 06:36:00;;;;;;;10.27;7.43;;;10.30;99.90;;;;;;5052374;28;20219;-50
2023/03/22 06:38:33;;;;;;;9.63;6.83;;;10.40;99.90;;;;;;5084854;28;20198;-52
2023/03/22 06:41:21;;;;;;;9.33;6.53;;;10.40;99.90;;;;;;5052579;28;20340;-58
2023/03/22 06:44:06;;;;;;;8.80;6.90;;;10.50;99.90;;;;;;5047110;28;20226;-56
2023/03/22 06:46:42;;;;;;;10.60;6.10;;;10.50;99.90;;;;;;5051968;28;20967;-51
2023/03/22 06:49:21;;;;;;;10.37;6.70;;;10.60;99.90;;;;;;5063792;28;20539;-58
2023/03/22 06:51:52;;;;;;;7.97;6.47;;;10.60;99.90;;;;;;5057095;28;20632;-53
2023/03/22 06:54:20;;;;;;;12.27;6.23;;;10.60;99.90;;;;;;5056189;28;20226;-57
2023/03/22 06:56:47;;;;;;;9.87;6.50;;;10.70;99.90;;;;;;5049737;28;20794;-50
2023/03/22 06:59:14;;;;;;;10.60;6.60;;;10.70;99.90;;;;;;5045010;28;20203;-58
2023/03/22 07:01:41;;;;;;;9.03;5.57;;;10.70;99.90;;;;;;5057080;28;20442;-50
2023/03/22 07:04:10;;;;;;;9.53;6.47;;;10.80;99.90;;;;;;5058176;28;20202;-55
2023/03/22 07:06:39;;;;;;;20.37;12.13;;;10.80;99.90;;;;;;5056140;28;20211;-50
2023/03/22 07:09:06;;;;;;;12.83;6.73;;;10.80;99.90;;;;;;5055655;28;20809;-54
2023/03/22 07:11:36;;;;;;;9.80;5.83;;;10.80;99.90;;;;;;5051944;28;20214;-52
2023/03/22 07:14:03;;;;;;;8.73;5.67;;;10.90;99.90;;;;;;5040706;28;20203;-52
2023/03/22 07:16:48;;;;;;;7.47;5.07;;;10.90;99.90;;;;;;5053569;28;20293;-56
2023/03/22 07:19:17;;;;;;;6.33;5.70;;;10.90;99.90;;;;;;5047696;28;20367;-52
2023/03/22 07:21:45;;;;;;;7.73;5.93;;;10.90;99.90;;;;;;5058083;28;20198;-57
2023/03/22 07:24:13;;;;;;;11.20;5.93;;;11.00;99.90;;;;;;5060603;28;20205;-51
2023/03/22 07:26:41;;;;;;;12.17;6.83;;;11.00;99.90;;;;;;5061419;28;20302;-55
2023/03/22 07:29:10;;;;;;;11.37;6.40;;;11.10;99.90;;;;;;5046134;28;20848;-51
2023/03/22 07:31:38;;;;;;;8.97;6.27;;;11.10;99.90;;;;;;5061002;28;20207;-56
2023/03/22 07:34:09;;;;;;;9.57;5.63;;;11.10;99.90;;;;;;5048463;28;22713;-50
2023/03/22 07:37:04;;;;;;;11.90;6.40;;;11.20;99.90;;;;;;5053674;28;21028;-52
2023/03/22 07:39:31;;;;;;;8.87;5.90;;;11.20;99.90;;;;;;5053621;28;20215;-49
2023/03/22 07:41:58;;;;;;;7.53;5.73;;;11.20;99.90;;;;;;5059409;28;20264;-49
2023/03/22 07:44:25;;;;;;;7.63;5.47;;;11.30;99.90;;;;;;5051594;28;20222;-49
2023/03/22 07:47:24;;;;;;;9.53;6.07;;;11.30;99.90;;;;;;5041216;28;20262;-53
2023/03/22 07:50:21;;;;;;;9.07;6.47;;;11.30;99.90;;;;;;5059127;28;20210;-53
2023/03/22 07:52:55;;;;;;;9.57;7.13;;;11.40;99.90;;;;;;5050864;28;20710;-53
2023/03/22 07:55:22;;;;;;;8.57;6.97;;;11.50;99.90;;;;;;5057747;28;20195;-50
2023/03/22 07:57:50;;;;;;;12.30;7.10;;;11.50;99.90;;;;;;5060847;28;20772;-55
2023/03/22 08:00:17;;;;;;;11.17;7.47;;;11.50;99.90;;;;;;5036071;28;20290;-57
2023/03/22 08:03:01;;;;;;;12.47;8.27;;;11.50;99.90;;;;;;5062063;28;20342;-50
2023/03/22 08:05:51;;;;;;;9.57;7.87;;;11.50;99.90;;;;;;5055669;28;20565;-49
2023/03/22 08:08:19;;;;;;;12.43;8.07;;;11.60;99.90;;;;;;5067196;28;20202;-55
2023/03/22 08:10:50;;;;;;;15.00;8.27;;;11.60;99.90;;;;;;5061619;28;20214;-52
2023/03/22 08:13:18;;;;;;;15.17;8.20;;;11.70;99.90;;;;;;5052535;28;20198;-56
2023/03/22 08:15:44;;;;;;;12.10;8.33;;;11.70;99.90;;;;;;5048412;28;20729;-49
2023/03/22 08:18:12;;;;;;;9.27;7.60;;;11.70;99.90;;;;;;5064245;28;20201;-54
2023/03/22 08:20:39;;;;;;;10.40;7.93;;;11.80;99.90;;;;;;5050287;28;20353;-55
2023/03/22 08:23:14;;;;;;;12.27;8.17;;;11.80;99.90;;;;;;5062770;28;20665;-55
2023/03/22 08:25:59;;;;;;;12.97;8.27;;;11.80;99.90;;;;;;5055087;28;20230;-49
2023/03/22 08:28:26;;;;;;;10.57;8.23;;;11.80;99.90;;;;;;5060093;28;20780;-56
2023/03/22 08:30:53;;;;;;;10.20;8.30;;;11.80;99.90;;;;;;5049208;28;20222;-50
2023/03/22 08:33:22;;;;;;;11.73;8.83;;;11.90;99.90;;;;;;5062099;28;20199;-55
2023/03/22 08:35:50;;;;;;;10.50;8.43;;;11.90;99.90;;;;;;5055196;28;20204;-47
2023/03/22 08:38:18;;;;;;;14.73;8.67;;;11.90;99.90;;;;;;5055072;28;20301;-55
2023/03/22 08:40:48;;;;;;;15.50;9.70;;;12.00;99.90;;;;;;5041670;28;22667;-48
2023/03/22 08:43:20;;;;;;;8.93;7.67;;;12.10;99.90;;;;;;5060292;28;20206;-52
2023/03/22 08:45:47;;;;;;;14.00;8.73;;;12.20;99.90;;;;;;5060826;28;20209;-49
2023/03/22 08:48:16;;;;;;;17.30;9.03;;;12.30;99.90;;;;;;5047515;28;20279;-54
2023/03/22 08:51:01;;;;;;;10.13;7.70;;;12.50;99.90;;;;;;5057354;28;20222;-52
2023/03/22 08:53:38;;;;;;;10.53;8.00;;;12.60;99.90;;;;;;5050994;28;20413;-50
2023/03/22 08:56:43;;;;;;;11.30;8.07;;;12.70;99.90;;;;;;5053821;28;20527;-50
2023/03/22 08:59:30;;;;;;;10.20;7.13;;;12.80;99.90;;;;;;5063661;28;20245;-54
2023/03/22 09:02:20;;;;;;;8.93;6.80;;;12.80;99.90;;;;;;5033479;28;20210;-51
2023/03/22 09:04:47;;;;;;;8.30;6.87;;;12.80;99.90;;;;;;5060599;28;20289;-51
2023/03/22 09:07:14;;;;;;;8.20;6.67;;;12.80;99.90;;;;;;5053368;28;20284;-54
2023/03/22 09:09:48;;;;;;;14.40;7.23;;;12.80;99.90;;;;;;5054660;28;20205;-47
2023/03/22 09:12:15;;;;;;;8.07;6.30;;;13.00;99.90;;;;;;5060853;28;20701;-54
2023/03/22 09:14:45;;;;;;;11.10;7.57;;;13.20;99.90;;;;;;5047803;28;20199;-48
2023/03/22 09:17:12;;;;;;;8.33;6.00;;;13.30;99.90;;;;;;5058569;28;20876;-55
2023/03/22 09:19:39;;;;;;;7.80;5.37;;;13.30;99.90;;;;;;5047284;28;20943;-48
2023/03/22 09:22:06;;;;;;;8.60;5.80;;;13.30;99.90;;;;;;5056251;28;20619;-51
2023/03/22 09:24:41;;;;;;;7.03;5.63;;;13.40;99.90;;;;;;5055682;28;20809;-49
2023/03/22 09:27:08;;;;;;;11.40;6.10;;;13.30;99.90;;;;;;5056801;28;20257;-48
2023/03/22 09:29:34;;;;;;;10.87;6.47;;;13.30;99.90;;;;;;5057705;28;20277;-51
2023/03/22 09:32:06;;;;;;;9.43;5.97;;;13.30;99.90;;;;;;5093387;28;20748;-49
2023/03/22 09:34:36;;;;;;;8.83;5.73;;;13.30;99.90;;;;;;5047017;28;20297;-52
2023/03/22 09:37:05;;;;;;;9.17;5.50;;;13.40;99.90;;;;;;5062013;28;20229;-50
2023/03/22 09:39:43;;;;;;;8.93;5.57;;;13.40;99.90;;;;;;5058515;28;20255;-51
2023/03/22 09:42:22;;;;;;;8.00;5.67;;;13.40;99.90;;;;;;5055396;28;20573;-53
2023/03/22 09:44:51;;;;;;;6.17;5.17;;;13.40;99.90;;;;;;5055352;28;20634;-54
2023/03/22 09:47:33;;;;;;;6.17;5.03;;;13.40;99.90;;;;;;5060881;28;20823;-52
2023/03/22 09:50:05;;;;;;;6.57;4.67;;;13.40;99.90;;;;;;5049965;28;20194;-50
2023/03/22 09:52:32;;;;;;;7.50;4.90;;;13.30;99.90;;;;;;5056137;28;20213;-55
2023/03/22 09:54:59;;;;;;;11.03;6.10;;;13.20;99.90;;;;;;5064327;28;20187;-50
2023/03/22 09:57:31;;;;;;;8.53;5.73;;;13.30;99.90;;;;;;5058162;28;20226;-50
2023/03/22 10:00:10;;;;;;;10.93;5.07;;;13.30;99.90;;;;;;5057512;28;20228;-53
2023/03/22 10:02:49;;;;;;;6.73;5.00;;;13.30;99.90;;;;;;5060239;28;20202;-54
2023/03/22 10:05:26;;;;;;;9.60;4.93;;;13.40;99.90;;;;;;5049497;28;20250;-54
2023/03/22 10:08:12;;;;;;;7.20;5.13;;;13.40;99.90;;;;;;5054640;28;20242;-51
2023/03/22 10:10:40;;;;;;;7.63;5.20;;;13.50;99.90;;;;;;5060073;28;20215;-57
2023/03/22 10:13:18;;;;;;;10.40;5.40;;;13.50;99.90;;;;;;5049126;28;20222;-50
2023/03/22 10:15:47;;;;;;;4.70;4.30;;;13.50;99.90;;;;;;5057540;28;20540;-54
2023/03/22 10:18:20;;;;;;;10.03;4.77;;;13.60;99.90;;;;;;5061301;28;20198;-51
2023/03/22 10:20:52;;;;;;;8.43;4.47;;;13.60;99.90;;;;;;5044048;28;20209;-53
2023/03/22 10:23:24;;;;;;;5.70;4.63;;;13.60;99.90;;;;;;5055762;28;20283;-53
2023/03/22 10:25:53;;;;;;;6.77;4.40;;;13.60;99.90;;;;;;5054760;28;20249;-49
2023/03/22 10:28:23;;;;;;;8.47;4.53;;;13.60;99.90;;;;;;5055963;28;20221;-48
2023/03/22 10:30:54;;;;;;;6.50;4.27;;;13.60;99.90;;;;;;5051439;28;20211;-55
2023/03/22 10:33:30;;;;;;;11.87;4.93;;;13.50;99.90;;;;;;5060024;28;20388;-51
2023/03/22 10:35:57;;;;;;;5.30;3.90;;;13.60;99.90;;;;;;5037695;28;20222;-53
2023/03/22 10:38:26;;;;;;;8.47;3.83;;;13.50;99.90;;;;;;5051460;28;21701;-50
2023/03/22 10:40:56;;;;;;;7.07;2.70;;;13.60;99.90;;;;;;5054851;28;20206;-50
2023/03/22 10:43:29;;;;;;;4.40;3.30;;;13.50;99.90;;;;;;5045361;28;20198;-50
2023/03/22 10:45:57;;;;;;;5.50;3.23;;;13.50;99.90;;;;;;5055423;28;20198;-50
2023/03/22 10:48:31;;;;;;;5.57;3.50;;;13.60;99.90;;;;;;5061802;28;20439;-50
2023/03/22 10:50:59;;;;;;;6.90;3.10;;;13.70;99.90;;;;;;5047864;28;20730;-54
2023/03/22 10:53:37;;;;;;;4.20;2.93;;;13.70;99.90;;;;;;5052905;28;20226;-49
2023/03/22 10:56:05;;;;;;;7.23;3.00;;;13.80;99.90;;;;;;5059113;28;20229;-55
2023/03/22 10:58:33;;;;;;;5.83;2.20;;;13.80;99.90;;;;;;5047714;28;20434;-50
2023/03/22 11:01:04;;;;;;;5.73;2.47;;;13.80;99.90;;;;;;5055177;28;20277;-54
2023/03/22 11:03:38;;;;;;;3.67;2.53;;;13.80;99.90;;;;;;5059923;28;20194;-49
2023/03/22 11:06:08;;;;;;;2.90;1.90;;;13.80;99.90;;;;;;5046689;28;20250;-55
2023/03/22 11:08:45;;;;;;;6.70;3.47;;;13.90;99.90;;;;;;5056830;28;20309;-52
2023/03/22 11:11:19;;;;;;;3.23;2.43;;;13.90;99.90;;;;;;5044457;28;20631;-54
2023/03/22 11:13:53;;;;;;;6.33;2.67;;;13.90;99.90;;;;;;5048473;28;20211;-50
2023/03/22 11:16:20;;;;;;;4.50;2.53;;;14.00;99.90;;;;;;5052014;28;20275;-48
2023/03/22 11:18:48;;;;;;;6.87;2.70;;;14.10;99.90;;;;;;5059471;28;20202;-49
2023/03/22 11:21:17;;;;;;;5.40;2.10;;;14.20;99.90;;;;;;5044085;28;20653;-54
2023/03/22 11:23:53;;;;;;;8.37;3.07;;;14.10;99.90;;;;;;5061631;28;20570;-49
2023/03/22 11:26:26;;;;;;;4.67;2.87;;;14.20;99.90;;;;;;5052042;28;20241;-56
2023/03/22 11:29:02;;;;;;;4.30;2.43;;;14.10;99.90;;;;;;5043894;28;20214;-52
2023/03/22 11:31:49;;;;;;;4.30;2.50;;;14.00;99.90;;;;;;5051535;28;20221;-54
2023/03/22 11:34:20;;;;;;;5.47;2.43;;;14.00;99.90;;;;;;5056080;28;20278;-51
2023/03/22 11:36:53;;;;;;;3.47;2.30;;;14.00;99.90;;;;;;5038837;28;20350;-51
2023/03/22 11:39:21;;;;;;;6.00;2.30;;;14.00;99.90;;;;;;5056717;28;20202;-52
2023/03/22 11:41:48;;;;;;;5.10;3.07;;;14.00;99.90;;;;;;5049542;28;20274;-49
2023/03/22 11:44:17;;;;;;;4.70;2.70;;;14.00;99.90;;;;;;5055381;28;20222;-50
2023/03/22 11:46:51;;;;;;;6.13;2.57;;;14.00;99.90;;;;;;5040279;28;20458;-52
2023/03/22 11:49:20;;;;;;;6.13;2.63;;;14.00;99.90;;;;;;5056947;28;20198;-55
2023/03/22 11:51:47;;;;;;;4.50;2.30;;;14.00;99.90;;;;;;5050008;28;20587;-52
2023/03/22 11:54:22;;;;;;;2.87;1.90;;;14.00;99.90;;;;;;5060927;28;20195;-55
2023/03/22 11:56:50;;;;;;;5.57;2.60;;;13.90;99.90;;;;;;5053960;28;20226;-53
2023/03/22 11:59:23;;;;;;;3.67;2.30;;;14.00;99.90;;;;;;5055576;28;20237;-54
2023/03/22 12:01:56;;;;;;;3.67;2.83;;;14.10;99.90;;;;;;5050002;28;20198;-50
2023/03/22 12:04:28;;;;;;;4.40;2.07;;;14.10;99.90;;;;;;5061792;28;20211;-56
2023/03/22 12:06:58;;;;;;;5.10;2.27;;;14.10;99.90;;;;;;5044493;28;20226;-52
2023/03/22 12:09:32;;;;;;;4.00;2.20;;;14.00;99.90;;;;;;5060940;28;20214;-56
2023/03/22 12:12:02;;;;;;;5.50;2.37;;;14.00;99.90;;;;;;5058686;28;20703;-48
2023/03/22 12:14:31;;;;;;;4.53;2.27;;;14.00;99.90;;;;;;5055730;28;20206;-51
2023/03/22 12:17:05;;;;;;;5.37;2.23;;;14.00;99.90;;;;;;5064017;28;20689;-50
2023/03/22 12:19:58;;;;;;;4.00;2.00;;;14.00;99.90;;;;;;5061259;28;20373;-48
2023/03/22 12:22:31;;;;;;;5.20;2.80;;;13.90;99.90;;;;;;5046726;28;20199;-56
2023/03/22 12:24:59;;;;;;;4.30;2.60;;;14.00;99.90;;;;;;5062423;28;20307;-51
2023/03/22 12:27:30;;;;;;;5.17;2.40;;;14.00;99.90;;;;;;5055183;28;20622;-55
2023/03/22 12:30:03;;;;;;;6.40;3.70;;;13.90;99.90;;;;;;5063940;28;20226;-50
2023/03/22 12:32:34;;;;;;;5.20;2.53;;;13.90;99.90;;;;;;5056039;28;20223;-51
2023/03/22 12:35:05;;;;;;;5.43;3.07;;;13.90;99.90;;;;;;5064789;28;20284;-51
2023/03/22 12:37:35;;;;;;;4.43;3.07;;;13.80;99.90;;;;;;5047600;28;20214;-51
2023/03/22 12:40:05;;;;;;;5.30;3.10;;;13.80;99.90;;;;;;5061864;28;20689;-52
2023/03/22 12:42:37;;;;;;;5.97;3.50;;;13.80;99.90;;;;;;5055458;28;20195;-48
2023/03/22 12:45:11;;;;;;;6.00;3.47;;;13.80;99.90;;;;;;5063237;28;20321;-52
2023/03/22 12:47:41;;;;;;;5.00;3.20;;;13.70;99.90;;;;;;5051008;28;20210;-52
2023/03/22 12:50:13;;;;;;;7.40;3.50;;;13.70;99.90;;;;;;5063554;28;20226;-53
2023/03/22 12:52:45;;;;;;;5.63;3.93;;;13.60;99.90;;;;;;5044155;28;20696;-55
2023/03/22 12:55:21;;;;;;;5.83;3.60;;;13.60;99.90;;;;;;5061883;28;20195;-55
2023/03/22 12:57:53;;;;;;;8.63;3.63;;;13.60;99.90;;;;;;5057943;28;20218;-48
2023/03/22 13:00:26;;;;;;;4.63;3.70;;;13.50;99.90;;;;;;5060017;28;20227;-55
2023/03/22 13:02:59;;;;;;;5.70;3.17;;;13.40;99.90;;;;;;5058769;28;20206;-48
2023/03/22 13:05:33;;;;;;;5.10;3.40;;;13.30;99.90;;;;;;5054181;28;20195;-51
2023/03/22 13:08:04;;;;;;;4.33;2.90;;;13.20;99.90;;;;;;5058836;28;20279;-53
2023/03/22 13:10:59;;;;;;;3.77;2.87;;;13.00;99.90;;;;;;5044275;28;20448;-50